sensor_id;sensor_type;location;lat;lon;timestamp;pressure;altitude;pressure_sealevel;temperature;humidity
58757;BME280;44527;47.460;19.016;2023-05-19T00:00:25;100936.06;;;13.14;100.00
58757;BME280;44527;47.460;19.016;2023-05-19T00:03:27;100931.72;;;13.13;100.00
58757;BME280;44527;47.460;19.016;2023-05-19T00:06:31;100934.56;;;13.09;100.00
58757;BME280;44527;47.460;19.016;2023-05-19T00:09:34;100930.66;;;13.02;100.00
58757;BME280;44527;47.460;19.016;2023-05-19T00:12:36;100935.37;;;12.97;100.00
58757;BME280;44527;47.460;19.016;2023-05-19T00:15:39;100930.31;;;13.07;100.00
58757;BME280;44527;47.460;19.016;2023-05-19T00:18:41;100939.41;;;13.03;100.00
58757;BME280;44527;47.460;19.016;2023-05-19T00:21:44;100938.56;;;13.02;100.00
58757;BME280;44527;47.460;19.016;2023-05-19T00:24:47;100937.81;;;13.00;100.00
58757;BME280;44527;47.460;19.016;2023-05-19T00:27:50;100938.00;;;12.97;100.00
58757;BME280;44527;47.460;19.016;2023-05-19T00:30:52;100939.19;;;13.06;100.00
58757;BME280;44527;47.460;19.016;2023-05-19T00:33:55;100934.34;;;13.00;100.00
58757;BME280;44527;47.460;19.016;2023-05-19T00:36:57;100922.19;;;12.97;100.00
58757;BME280;44527;47.460;19.016;2023-05-19T00:40:00;100923.59;;;13.03;100.00
58757;BME280;44527;47.460;19.016;2023-05-19T00:43:03;100921.03;;;12.88;100.00
58757;BME280;44527;47.460;19.016;2023-05-19T00:46:12;100921.56;;;12.94;100.00
58757;BME280;44527;47.460;19.016;2023-05-19T00:49:14;100920.41;;;12.98;100.00
58757;BME280;44527;47.460;19.016;2023-05-19T00:52:17;100913.03;;;12.90;100.00
58757;BME280;44527;47.460;19.016;2023-05-19T00:55:20;100919.13;;;12.78;100.00
58757;BME280;44527;47.460;19.016;2023-05-19T00:58:23;100921.75;;;12.78;100.00
58757;BME280;44527;47.460;19.016;2023-05-19T01:01:30;100915.22;;;12.71;100.00
58757;BME280;44527;47.460;19.016;2023-05-19T01:04:33;100912.38;;;12.74;100.00
58757;BME280;44527;47.460;19.016;2023-05-19T01:07:37;100913.22;;;12.47;100.00
58757;BME280;44527;47.460;19.016;2023-05-19T01:10:39;100910.03;;;12.42;100.00
58757;BME280;44527;47.460;19.016;2023-05-19T01:13:42;100909.94;;;12.44;100.00
58757;BME280;44527;47.460;19.016;2023-05-19T01:19:59;100910.38;;;12.50;100.00
58757;BME280;44527;47.460;19.016;2023-05-19T01:26:39;100919.75;;;12.54;100.00
58757;BME280;44527;47.460;19.016;2023-05-19T01:30:05;100915.72;;;12.49;100.00
58757;BME280;44527;47.460;19.016;2023-05-19T01:33:11;100921.87;;;12.49;100.00
58757;BME280;44527;47.460;19.016;2023-05-19T01:36:15;100918.31;;;12.36;100.00
58757;BME280;44527;47.460;19.016;2023-05-19T01:39:18;100916.59;;;12.49;100.00
58757;BME280;44527;47.460;19.016;2023-05-19T01:42:21;100927.03;;;12.51;100.00
58757;BME280;44527;47.460;19.016;2023-05-19T01:45:24;100922.34;;;12.41;100.00
58757;BME280;44527;47.460;19.016;2023-05-19T01:48:27;100917.28;;;12.38;100.00
58757;BME280;44527;47.460;19.016;2023-05-19T01:51:31;100910.63;;;12.33;100.00
58757;BME280;44527;47.460;19.016;2023-05-19T01:54:36;100912.63;;;12.29;100.00
58757;BME280;44527;47.460;19.016;2023-05-19T01:57:42;100904.25;;;12.37;100.00
58757;BME280;44527;47.460;19.016;2023-05-19T02:07:25;100911.03;;;12.27;100.00
58757;BME280;44527;47.460;19.016;2023-05-19T02:10:32;100915.16;;;12.31;100.00
58757;BME280;44527;47.460;19.016;2023-05-19T02:13:36;100910.34;;;12.37;100.00
58757;BME280;44527;47.460;19.016;2023-05-19T02:16:42;100913.75;;;12.25;100.00
58757;BME280;44527;47.460;19.016;2023-05-19T02:19:46;100918.97;;;12.39;100.00
58757;BME280;44527;47.460;19.016;2023-05-19T02:22:48;100915.41;;;12.40;100.00
58757;BME280;44527;47.460;19.016;2023-05-19T02:25:51;100913.97;;;12.22;100.00
58757;BME280;44527;47.460;19.016;2023-05-19T02:28:53;100905.81;;;12.12;100.00
58757;BME280;44527;47.460;19.016;2023-05-19T02:31:55;100912.31;;;12.07;100.00
58757;BME280;44527;47.460;19.016;2023-05-19T02:34:58;100910.97;;;12.14;100.00
58757;BME280;44527;47.460;19.016;2023-05-19T02:38:01;100917.81;;;12.16;100.00
58757;BME280;44527;47.460;19.016;2023-05-19T02:41:03;100914.63;;;12.11;100.00
58757;BME280;44527;47.460;19.016;2023-05-19T02:44:06;100912.38;;;12.05;100.00
58757;BME280;44527;47.460;19.016;2023-05-19T02:47:09;100913.03;;;12.09;100.00
58757;BME280;44527;47.460;19.016;2023-05-19T02:50:12;100902.31;;;12.12;100.00
58757;BME280;44527;47.460;19.016;2023-05-19T02:53:14;100900.06;;;12.06;100.00
58757;BME280;44527;47.460;19.016;2023-05-19T02:56:17;100914.44;;;12.14;100.00
58757;BME280;44527;47.460;19.016;2023-05-19T02:59:19;100904.66;;;12.16;100.00
58757;BME280;44527;47.460;19.016;2023-05-19T03:02:22;100910.31;;;12.10;100.00
58757;BME280;44527;47.460;19.016;2023-05-19T03:05:25;100910.88;;;12.15;100.00
58757;BME280;44527;47.460;19.016;2023-05-19T03:08:27;100914.63;;;12.11;100.00
58757;BME280;44527;47.460;19.016;2023-05-19T03:11:30;100914.09;;;12.06;100.00
58757;BME280;44527;47.460;19.016;2023-05-19T03:14:33;100921.78;;;12.09;100.00
58757;BME280;44527;47.460;19.016;2023-05-19T03:17:35;100918.22;;;11.96;100.00
58757;BME280;44527;47.460;19.016;2023-05-19T03:20:38;100916.62;;;11.79;100.00
58757;BME280;44527;47.460;19.016;2023-05-19T03:23:42;100925.28;;;11.67;100.00
58757;BME280;44527;47.460;19.016;2023-05-19T03:26:45;100921.59;;;11.55;100.00
58757;BME280;44527;47.460;19.016;2023-05-19T03:29:47;100931.19;;;11.70;100.00
58757;BME280;44527;47.460;19.016;2023-05-19T03:32:49;100923.66;;;11.93;100.00
58757;BME280;44527;47.460;19.016;2023-05-19T03:35:55;100923.56;;;11.80;100.00
58757;BME280;44527;47.460;19.016;2023-05-19T03:38:57;100921.22;;;11.90;100.00
58757;BME280;44527;47.460;19.016;2023-05-19T03:42:00;100919.94;;;11.97;100.00
58757;BME280;44527;47.460;19.016;2023-05-19T03:45:02;100918.72;;;11.88;100.00
58757;BME280;44527;47.460;19.016;2023-05-19T03:48:05;100923.94;;;12.03;100.00
58757;BME280;44527;47.460;19.016;2023-05-19T03:51:11;100923.34;;;12.12;100.00
58757;BME280;44527;47.460;19.016;2023-05-19T03:54:15;100921.22;;;12.18;100.00
58757;BME280;44527;47.460;19.016;2023-05-19T03:57:17;100924.81;;;12.30;100.00
58757;BME280;44527;47.460;19.016;2023-05-19T04:00:21;100927.00;;;12.24;100.00
58757;BME280;44527;47.460;19.016;2023-05-19T04:03:26;100928.66;;;12.39;100.00
58757;BME280;44527;47.460;19.016;2023-05-19T04:06:29;100927.56;;;12.29;100.00
58757;BME280;44527;47.460;19.016;2023-05-19T04:09:33;100933.84;;;12.40;100.00
58757;BME280;44527;47.460;19.016;2023-05-19T04:12:36;100925.34;;;12.50;100.00
58757;BME280;44527;47.460;19.016;2023-05-19T04:15:38;100934.88;;;12.65;100.00
58757;BME280;44527;47.460;19.016;2023-05-19T04:18:42;100941.87;;;12.79;100.00
58757;BME280;44527;47.460;19.016;2023-05-19T04:21:47;100944.88;;;13.00;100.00
58757;BME280;44527;47.460;19.016;2023-05-19T04:24:49;100945.97;;;13.10;100.00
58757;BME280;44527;47.460;19.016;2023-05-19T04:27:53;100949.63;;;13.35;100.00
58757;BME280;44527;47.460;19.016;2023-05-19T04:30:58;100940.66;;;13.50;100.00
58757;BME280;44527;47.460;19.016;2023-05-19T04:34:03;100953.94;;;13.61;100.00
58757;BME280;44527;47.460;19.016;2023-05-19T04:37:06;100951.50;;;13.71;100.00
58757;BME280;44527;47.460;19.016;2023-05-19T04:40:09;100957.38;;;14.00;100.00
58757;BME280;44527;47.460;19.016;2023-05-19T04:43:12;100967.62;;;14.41;100.00
58757;BME280;44527;47.460;19.016;2023-05-19T04:46:14;100962.59;;;14.86;100.00
58757;BME280;44527;47.460;19.016;2023-05-19T04:49:17;100965.38;;;15.20;100.00
58757;BME280;44527;47.460;19.016;2023-05-19T04:52:22;100971.00;;;15.62;100.00
58757;BME280;44527;47.460;19.016;2023-05-19T04:55:25;100971.44;;;16.46;96.95
58757;BME280;44527;47.460;19.016;2023-05-19T04:58:27;100978.75;;;18.02;85.43
58757;BME280;44527;47.460;19.016;2023-05-19T05:01:30;100968.56;;;19.91;75.97
58757;BME280;44527;47.460;19.016;2023-05-19T05:04:34;100977.44;;;20.83;68.59
58757;BME280;44527;47.460;19.016;2023-05-19T05:07:36;100969.94;;;22.00;64.18
58757;BME280;44527;47.460;19.016;2023-05-19T05:10:42;100980.50;;;21.06;66.82
58757;BME280;44527;47.460;19.016;2023-05-19T05:13:44;100976.44;;;20.20;69.12
58757;BME280;44527;47.460;19.016;2023-05-19T05:16:48;100988.00;;;19.64;73.20
58757;BME280;44527;47.460;19.016;2023-05-19T05:19:51;100983.84;;;19.23;74.89
58757;BME280;44527;47.460;19.016;2023-05-19T05:22:54;100983.44;;;18.79;77.87
58757;BME280;44527;47.460;19.016;2023-05-19T05:25:59;100984.41;;;18.78;78.59
58757;BME280;44527;47.460;19.016;2023-05-19T05:29:07;100993.22;;;18.78;77.25
58757;BME280;44527;47.460;19.016;2023-05-19T05:32:10;100990.44;;;19.09;75.11
58757;BME280;44527;47.460;19.016;2023-05-19T05:35:13;100988.63;;;19.00;75.80
58757;BME280;44527;47.460;19.016;2023-05-19T05:38:17;100981.22;;;17.94;81.46
58757;BME280;44527;47.460;19.016;2023-05-19T05:41:19;100989.47;;;17.90;81.79
58757;BME280;44527;47.460;19.016;2023-05-19T05:44:23;100987.31;;;18.15;80.73
58757;BME280;44527;47.460;19.016;2023-05-19T05:47:27;100989.97;;;18.65;77.29
58757;BME280;44527;47.460;19.016;2023-05-19T05:50:29;100991.00;;;18.93;77.66
58757;BME280;44527;47.460;19.016;2023-05-19T05:53:33;100993.50;;;19.24;75.81
58757;BME280;44527;47.460;19.016;2023-05-19T05:56:38;100986.81;;;19.10;76.03
58757;BME280;44527;47.460;19.016;2023-05-19T05:59:43;100994.75;;;18.71;77.39
58757;BME280;44527;47.460;19.016;2023-05-19T06:02:49;101002.47;;;19.03;76.66
58757;BME280;44527;47.460;19.016;2023-05-19T06:05:52;100994.66;;;18.82;78.43
58757;BME280;44527;47.460;19.016;2023-05-19T06:08:56;100994.62;;;19.31;76.38
58757;BME280;44527;47.460;19.016;2023-05-19T06:11:58;100990.03;;;19.80;72.68
58757;BME280;44527;47.460;19.016;2023-05-19T06:15:02;101000.38;;;21.11;68.47
58757;BME280;44527;47.460;19.016;2023-05-19T06:18:06;101002.81;;;21.41;66.00
58757;BME280;44527;47.460;19.016;2023-05-19T06:21:08;101006.09;;;21.34;64.52
58757;BME280;44527;47.460;19.016;2023-05-19T06:24:15;101003.44;;;20.99;67.43
58757;BME280;44527;47.460;19.016;2023-05-19T06:27:17;100998.88;;;20.73;66.93
58757;BME280;44527;47.460;19.016;2023-05-19T06:30:20;101006.69;;;20.57;68.41
58757;BME280;44527;47.460;19.016;2023-05-19T06:33:23;101009.69;;;20.89;67.83
58757;BME280;44527;47.460;19.016;2023-05-19T06:36:29;101010.44;;;21.79;63.31
58757;BME280;44527;47.460;19.016;2023-05-19T06:39:32;101020.75;;;22.35;61.60
58757;BME280;44527;47.460;19.016;2023-05-19T06:42:35;101032.00;;;22.55;61.37
58757;BME280;44527;47.460;19.016;2023-05-19T06:45:38;101028.06;;;21.46;64.93
58757;BME280;44527;47.460;19.016;2023-05-19T06:48:41;101029.50;;;21.59;63.03
58757;BME280;44527;47.460;19.016;2023-05-19T06:51:46;101032.63;;;20.82;67.05
58757;BME280;44527;47.460;19.016;2023-05-19T06:54:49;101036.28;;;21.17;66.21
58757;BME280;44527;47.460;19.016;2023-05-19T06:57:52;101031.94;;;22.04;61.83
58757;BME280;44527;47.460;19.016;2023-05-19T07:00:55;101033.13;;;23.68;57.25
58757;BME280;44527;47.460;19.016;2023-05-19T07:03:58;101043.13;;;22.84;58.88
58757;BME280;44527;47.460;19.016;2023-05-19T07:07:01;101038.47;;;22.94;58.10
58757;BME280;44527;47.460;19.016;2023-05-19T07:10:04;101039.16;;;23.62;55.25
58757;BME280;44527;47.460;19.016;2023-05-19T07:13:07;101035.28;;;23.81;55.11
58757;BME280;44527;47.460;19.016;2023-05-19T07:16:10;101034.47;;;23.64;56.03
58757;BME280;44527;47.460;19.016;2023-05-19T07:19:13;101029.19;;;22.64;57.19
58757;BME280;44527;47.460;19.016;2023-05-19T07:22:15;101038.69;;;23.17;55.72
58757;BME280;44527;47.460;19.016;2023-05-19T07:25:18;101030.81;;;23.73;56.26
58757;BME280;44527;47.460;19.016;2023-05-19T07:28:20;101025.69;;;25.65;50.22
58757;BME280;44527;47.460;19.016;2023-05-19T07:31:23;101018.34;;;25.74;48.25
58757;BME280;44527;47.460;19.016;2023-05-19T07:34:25;101017.41;;;26.41;47.33
58757;BME280;44527;47.460;19.016;2023-05-19T07:37:28;101015.31;;;26.36;47.26
58757;BME280;44527;47.460;19.016;2023-05-19T07:40:30;101012.66;;;26.94;44.88
58757;BME280;44527;47.460;19.016;2023-05-19T07:43:33;101008.97;;;26.44;46.35
58757;BME280;44527;47.460;19.016;2023-05-19T07:46:35;101013.56;;;26.14;46.52
58757;BME280;44527;47.460;19.016;2023-05-19T07:49:39;101011.88;;;26.28;48.88
58757;BME280;44527;47.460;19.016;2023-05-19T07:52:41;101009.41;;;26.26;48.47
58757;BME280;44527;47.460;19.016;2023-05-19T07:55:43;101013.44;;;26.37;47.26
58757;BME280;44527;47.460;19.016;2023-05-19T07:58:46;101003.69;;;25.47;49.36
58757;BME280;44527;47.460;19.016;2023-05-19T08:01:48;101004.56;;;24.79;50.01
58757;BME280;44527;47.460;19.016;2023-05-19T08:04:50;101007.88;;;24.18;49.45
58757;BME280;44527;47.460;19.016;2023-05-19T08:07:54;101004.97;;;23.89;53.63
58757;BME280;44527;47.460;19.016;2023-05-19T08:10:56;100994.88;;;24.69;51.77
58757;BME280;44527;47.460;19.016;2023-05-19T08:13:58;100997.91;;;24.43;53.51
58757;BME280;44527;47.460;19.016;2023-05-19T08:17:02;100986.53;;;24.87;49.90
58757;BME280;44527;47.460;19.016;2023-05-19T08:20:04;100986.84;;;24.92;50.71
58757;BME280;44527;47.460;19.016;2023-05-19T08:23:09;100986.59;;;24.56;50.40
58757;BME280;44527;47.460;19.016;2023-05-19T08:26:11;100996.72;;;24.38;52.41
58757;BME280;44527;47.460;19.016;2023-05-19T08:29:13;100982.16;;;24.32;51.44
58757;BME280;44527;47.460;19.016;2023-05-19T08:32:15;100993.63;;;23.70;53.67
58757;BME280;44527;47.460;19.016;2023-05-19T08:35:18;100982.00;;;23.86;54.06
58757;BME280;44527;47.460;19.016;2023-05-19T08:38:20;100982.56;;;23.81;54.44
58757;BME280;44527;47.460;19.016;2023-05-19T08:41:23;100978.66;;;23.92;51.90
58757;BME280;44527;47.460;19.016;2023-05-19T08:44:25;100990.16;;;24.09;53.93
58757;BME280;44527;47.460;19.016;2023-05-19T08:47:28;100989.41;;;23.68;54.28
58757;BME280;44527;47.460;19.016;2023-05-19T08:50:30;100993.28;;;23.32;54.24
58757;BME280;44527;47.460;19.016;2023-05-19T08:53:39;100981.72;;;22.75;57.47
58757;BME280;44527;47.460;19.016;2023-05-19T08:56:42;100982.37;;;22.77;59.34
58757;BME280;44527;47.460;19.016;2023-05-19T08:59:45;100979.19;;;23.79;54.90
58757;BME280;44527;47.460;19.016;2023-05-19T09:02:49;100987.41;;;23.53;54.99
58757;BME280;44527;47.460;19.016;2023-05-19T09:06:07;100978.72;;;22.78;57.26
58757;BME280;44527;47.460;19.016;2023-05-19T09:09:10;100974.62;;;22.41;59.72
58757;BME280;44527;47.460;19.016;2023-05-19T09:12:12;100977.84;;;22.10;60.78
58757;BME280;44527;47.460;19.016;2023-05-19T09:15:15;100977.81;;;22.02;62.95
58757;BME280;44527;47.460;19.016;2023-05-19T09:18:18;100980.75;;;21.91;64.75
58757;BME280;44527;47.460;19.016;2023-05-19T09:21:27;100977.16;;;21.74;62.74
58757;BME280;44527;47.460;19.016;2023-05-19T09:24:32;100982.06;;;21.87;63.12
58757;BME280;44527;47.460;19.016;2023-05-19T09:27:34;100984.34;;;21.47;64.28
58757;BME280;44527;47.460;19.016;2023-05-19T09:30:37;100982.97;;;21.43;63.30
58757;BME280;44527;47.460;19.016;2023-05-19T09:33:40;100984.81;;;21.43;63.42
58757;BME280;44527;47.460;19.016;2023-05-19T09:36:47;100976.44;;;21.38;64.32
58757;BME280;44527;47.460;19.016;2023-05-19T09:39:55;100976.72;;;21.61;66.05
58757;BME280;44527;47.460;19.016;2023-05-19T09:42:58;100972.44;;;21.42;64.72
58757;BME280;44527;47.460;19.016;2023-05-19T09:46:03;100967.56;;;21.63;64.50
58757;BME280;44527;47.460;19.016;2023-05-19T09:49:07;100961.25;;;21.98;63.11
58757;BME280;44527;47.460;19.016;2023-05-19T09:52:10;100963.81;;;21.74;61.91
58757;BME280;44527;47.460;19.016;2023-05-19T09:55:17;100968.16;;;21.49;64.02
58757;BME280;44527;47.460;19.016;2023-05-19T09:58:29;100955.91;;;21.64;63.54
58757;BME280;44527;47.460;19.016;2023-05-19T10:01:32;100954.06;;;21.39;62.72
58757;BME280;44527;47.460;19.016;2023-05-19T10:04:35;100952.63;;;21.26;67.94
58757;BME280;44527;47.460;19.016;2023-05-19T10:07:38;100941.03;;;21.36;63.50
58757;BME280;44527;47.460;19.016;2023-05-19T10:10:41;100944.12;;;21.49;62.60
58757;BME280;44527;47.460;19.016;2023-05-19T10:13:44;100932.56;;;21.74;59.90
58757;BME280;44527;47.460;19.016;2023-05-19T10:16:47;100929.19;;;21.98;57.49
58757;BME280;44527;47.460;19.016;2023-05-19T10:19:50;100938.53;;;22.61;57.20
58757;BME280;44527;47.460;19.016;2023-05-19T10:22:53;100931.38;;;22.78;56.29
58757;BME280;44527;47.460;19.016;2023-05-19T10:25:56;100929.91;;;23.08;54.84
58757;BME280;44527;47.460;19.016;2023-05-19T10:28:59;100933.53;;;22.66;57.30
58757;BME280;44527;47.460;19.016;2023-05-19T10:32:06;100936.22;;;22.50;56.18
58757;BME280;44527;47.460;19.016;2023-05-19T10:45:14;100925.78;;;22.22;57.91
58757;BME280;44527;47.460;19.016;2023-05-19T10:48:19;100927.00;;;22.53;55.29
58757;BME280;44527;47.460;19.016;2023-05-19T10:51:31;100919.34;;;22.82;57.54
58757;BME280;44527;47.460;19.016;2023-05-19T10:54:42;100918.87;;;23.03;57.67
58757;BME280;44527;47.460;19.016;2023-05-19T10:57:54;100921.00;;;22.75;58.99
58757;BME280;44527;47.460;19.016;2023-05-19T11:00:59;100911.84;;;22.94;58.90
58757;BME280;44527;47.460;19.016;2023-05-19T11:04:05;100917.97;;;22.45;59.56
58757;BME280;44527;47.460;19.016;2023-05-19T11:07:08;100904.91;;;22.42;58.08
58757;BME280;44527;47.460;19.016;2023-05-19T11:10:11;100906.78;;;22.50;55.78
58757;BME280;44527;47.460;19.016;2023-05-19T11:13:19;100902.59;;;22.47;56.10
58757;BME280;44527;47.460;19.016;2023-05-19T11:19:35;100897.94;;;22.66;55.86
58757;BME280;44527;47.460;19.016;2023-05-19T11:22:37;100900.94;;;22.79;56.63
58757;BME280;44527;47.460;19.016;2023-05-19T11:25:44;100892.56;;;22.74;58.67
58757;BME280;44527;47.460;19.016;2023-05-19T11:28:47;100898.94;;;22.73;56.96
58757;BME280;44527;47.460;19.016;2023-05-19T11:31:50;100895.91;;;22.92;58.07
58757;BME280;44527;47.460;19.016;2023-05-19T11:34:52;100901.78;;;22.63;57.52
58757;BME280;44527;47.460;19.016;2023-05-19T11:37:56;100900.84;;;22.22;59.53
58757;BME280;44527;47.460;19.016;2023-05-19T11:40:58;100883.38;;;21.93;61.25
58757;BME280;44527;47.460;19.016;2023-05-19T11:44:01;100890.78;;;22.16;60.77
58757;BME280;44527;47.460;19.016;2023-05-19T11:47:04;100891.06;;;22.80;58.44
58757;BME280;44527;47.460;19.016;2023-05-19T11:50:07;100891.41;;;22.85;55.31
58757;BME280;44527;47.460;19.016;2023-05-19T11:53:11;100892.88;;;23.28;57.82
58757;BME280;44527;47.460;19.016;2023-05-19T11:56:17;100884.84;;;23.36;55.81
58757;BME280;44527;47.460;19.016;2023-05-19T11:59:27;100890.50;;;23.42;53.82
58757;BME280;44527;47.460;19.016;2023-05-19T12:02:30;100897.78;;;23.00;55.05
58757;BME280;44527;47.460;19.016;2023-05-19T12:05:33;100889.03;;;22.49;55.17
58757;BME280;44527;47.460;19.016;2023-05-19T12:08:43;100874.22;;;21.96;55.76
58757;BME280;44527;47.460;19.016;2023-05-19T12:11:46;100881.03;;;22.41;55.65
58757;BME280;44527;47.460;19.016;2023-05-19T12:14:49;100872.69;;;22.60;57.22
58757;BME280;44527;47.460;19.016;2023-05-19T12:17:55;100879.03;;;22.76;58.00
58757;BME280;44527;47.460;19.016;2023-05-19T12:20:57;100870.00;;;23.09;56.34
58757;BME280;44527;47.460;19.016;2023-05-19T12:24:00;100863.75;;;23.25;53.17
58757;BME280;44527;47.460;19.016;2023-05-19T12:27:13;100859.50;;;23.47;56.57
58757;BME280;44527;47.460;19.016;2023-05-19T12:30:23;100857.97;;;23.53;56.40
58757;BME280;44527;47.460;19.016;2023-05-19T12:33:25;100839.16;;;23.30;54.02
58757;BME280;44527;47.460;19.016;2023-05-19T12:36:27;100852.22;;;23.16;56.43
58757;BME280;44527;47.460;19.016;2023-05-19T12:39:30;100844.53;;;23.13;59.86
58757;BME280;44527;47.460;19.016;2023-05-19T12:42:35;100830.16;;;23.14;54.54
58757;BME280;44527;47.460;19.016;2023-05-19T12:45:40;100837.03;;;23.01;53.82
58757;BME280;44527;47.460;19.016;2023-05-19T12:48:44;100827.44;;;23.23;55.42
58757;BME280;44527;47.460;19.016;2023-05-19T12:51:50;100827.97;;;23.18;54.81
58757;BME280;44527;47.460;19.016;2023-05-19T12:54:59;100821.28;;;23.14;55.00
58757;BME280;44527;47.460;19.016;2023-05-19T12:58:04;100825.69;;;23.54;50.97
58757;BME280;44527;47.460;19.016;2023-05-19T13:01:13;100824.78;;;23.62;53.41
58757;BME280;44527;47.460;19.016;2023-05-19T13:04:16;100818.16;;;23.89;55.20
58757;BME280;44527;47.460;19.016;2023-05-19T13:07:19;100827.09;;;24.04;56.99
58757;BME280;44527;47.460;19.016;2023-05-19T13:10:22;100821.44;;;23.99;52.33
58757;BME280;44527;47.460;19.016;2023-05-19T13:13:24;100813.72;;;23.73;54.43
58757;BME280;44527;47.460;19.016;2023-05-19T13:16:26;100816.28;;;23.90;56.89
58757;BME280;44527;47.460;19.016;2023-05-19T13:19:30;100811.53;;;23.69;55.87
58757;BME280;44527;47.460;19.016;2023-05-19T13:22:33;100804.94;;;23.48;56.72
58757;BME280;44527;47.460;19.016;2023-05-19T13:25:35;100806.06;;;23.54;57.17
58757;BME280;44527;47.460;19.016;2023-05-19T13:28:37;100797.53;;;23.50;56.05
58757;BME280;44527;47.460;19.016;2023-05-19T13:31:39;100796.97;;;23.71;56.43
58757;BME280;44527;47.460;19.016;2023-05-19T13:34:43;100796.47;;;23.68;55.80
58757;BME280;44527;47.460;19.016;2023-05-19T13:37:48;100780.50;;;23.43;53.14
58757;BME280;44527;47.460;19.016;2023-05-19T13:40:50;100778.44;;;23.14;55.55
58757;BME280;44527;47.460;19.016;2023-05-19T13:43:52;100784.00;;;23.04;57.95
58757;BME280;44527;47.460;19.016;2023-05-19T13:46:54;100773.25;;;23.12;56.59
58757;BME280;44527;47.460;19.016;2023-05-19T13:49:57;100774.56;;;23.25;59.20
58757;BME280;44527;47.460;19.016;2023-05-19T13:52:59;100786.78;;;23.27;58.74
58757;BME280;44527;47.460;19.016;2023-05-19T13:56:01;100781.19;;;23.37;56.94
58757;BME280;44527;47.460;19.016;2023-05-19T13:59:03;100779.09;;;23.24;55.42
58757;BME280;44527;47.460;19.016;2023-05-19T14:02:06;100775.47;;;23.09;56.57
58757;BME280;44527;47.460;19.016;2023-05-19T14:05:08;100765.28;;;22.80;58.71
58757;BME280;44527;47.460;19.016;2023-05-19T14:08:10;100767.47;;;22.68;54.95
58757;BME280;44527;47.460;19.016;2023-05-19T14:11:17;100768.53;;;22.26;59.83
58757;BME280;44527;47.460;19.016;2023-05-19T14:14:20;100769.37;;;22.35;59.68
58757;BME280;44527;47.460;19.016;2023-05-19T14:17:25;100767.34;;;22.45;58.98
58757;BME280;44527;47.460;19.016;2023-05-19T14:20:27;100766.84;;;22.66;55.29
58757;BME280;44527;47.460;19.016;2023-05-19T14:23:30;100768.78;;;22.80;54.75
58757;BME280;44527;47.460;19.016;2023-05-19T14:26:33;100764.09;;;22.99;58.53
58757;BME280;44527;47.460;19.016;2023-05-19T14:29:35;100769.56;;;23.22;57.03
58757;BME280;44527;47.460;19.016;2023-05-19T14:32:37;100765.69;;;23.24;55.77
58757;BME280;44527;47.460;19.016;2023-05-19T14:35:40;100765.00;;;23.30;56.23
58757;BME280;44527;47.460;19.016;2023-05-19T14:38:42;100756.44;;;23.35;53.75
58757;BME280;44527;47.460;19.016;2023-05-19T14:41:44;100752.16;;;23.17;56.67
58757;BME280;44527;47.460;19.016;2023-05-19T14:44:46;100753.56;;;22.97;52.46
58757;BME280;44527;47.460;19.016;2023-05-19T14:47:49;100756.72;;;22.92;55.72
58757;BME280;44527;47.460;19.016;2023-05-19T14:50:52;100752.56;;;22.90;58.11
58757;BME280;44527;47.460;19.016;2023-05-19T14:53:54;100758.75;;;22.99;56.06
58757;BME280;44527;47.460;19.016;2023-05-19T14:56:56;100753.16;;;23.16;53.66
58757;BME280;44527;47.460;19.016;2023-05-19T14:59:58;100757.00;;;23.14;57.43
58757;BME280;44527;47.460;19.016;2023-05-19T15:03:01;100752.00;;;23.11;53.27
58757;BME280;44527;47.460;19.016;2023-05-19T15:06:06;100752.37;;;22.91;57.02
58757;BME280;44527;47.460;19.016;2023-05-19T15:09:09;100751.28;;;22.61;57.59
58757;BME280;44527;47.460;19.016;2023-05-19T15:12:15;100752.09;;;22.62;56.75
58757;BME280;44527;47.460;19.016;2023-05-19T15:15:18;100750.13;;;22.39;60.43
58757;BME280;44527;47.460;19.016;2023-05-19T15:18:21;100749.47;;;22.45;61.75
58757;BME280;44527;47.460;19.016;2023-05-19T15:21:24;100749.13;;;22.57;54.72
58757;BME280;44527;47.460;19.016;2023-05-19T15:24:27;100746.25;;;22.75;55.87
58757;BME280;44527;47.460;19.016;2023-05-19T15:27:29;100747.56;;;22.87;54.65
58757;BME280;44527;47.460;19.016;2023-05-19T15:30:31;100753.16;;;23.16;55.15
58757;BME280;44527;47.460;19.016;2023-05-19T15:33:33;100747.84;;;23.08;53.45
58757;BME280;44527;47.460;19.016;2023-05-19T15:36:36;100743.38;;;23.32;52.35
58757;BME280;44527;47.460;19.016;2023-05-19T15:39:38;100740.75;;;23.24;54.73
58757;BME280;44527;47.460;19.016;2023-05-19T15:42:42;100740.72;;;23.32;53.91
58757;BME280;44527;47.460;19.016;2023-05-19T15:45:44;100742.19;;;23.43;55.60
58757;BME280;44527;47.460;19.016;2023-05-19T15:48:47;100744.72;;;23.36;54.47
58757;BME280;44527;47.460;19.016;2023-05-19T15:51:50;100738.22;;;23.30;54.06
58757;BME280;44527;47.460;19.016;2023-05-19T15:54:52;100733.38;;;23.26;53.56
58757;BME280;44527;47.460;19.016;2023-05-19T15:57:55;100730.34;;;23.29;54.29
58757;BME280;44527;47.460;19.016;2023-05-19T16:00:59;100734.53;;;23.31;52.38
58757;BME280;44527;47.460;19.016;2023-05-19T16:04:03;100730.59;;;23.11;52.87
58757;BME280;44527;47.460;19.016;2023-05-19T16:07:06;100732.44;;;23.10;52.59
58757;BME280;44527;47.460;19.016;2023-05-19T16:10:09;100736.81;;;23.03;51.31